sensor_id;sensor_type;location;lat;lon;timestamp;temperature;humidity
12911;DHT22;6523;49.758;6.120;2023-12-22T00:00:39;9.10;99.90
12911;DHT22;6523;49.758;6.120;2023-12-22T00:03:05;9.00;99.90
12911;DHT22;6523;49.758;6.120;2023-12-22T00:05:30;9.10;99.90
12911;DHT22;6523;49.758;6.120;2023-12-22T00:07:56;9.00;99.90
12911;DHT22;6523;49.758;6.120;2023-12-22T00:10:21;9.00;99.90
12911;DHT22;6523;49.758;6.120;2023-12-22T00:12:47;9.10;99.90
12911;DHT22;6523;49.758;6.120;2023-12-22T00:15:12;9.00;99.90
12911;DHT22;6523;49.758;6.120;2023-12-22T00:17:38;9.10;99.90
12911;DHT22;6523;49.758;6.120;2023-12-22T00:20:04;9.10;99.90
12911;DHT22;6523;49.758;6.120;2023-12-22T00:22:30;9.20;99.90
12911;DHT22;6523;49.758;6.120;2023-12-22T00:24:56;9.20;99.90
12911;DHT22;6523;49.758;6.120;2023-12-22T00:27:21;9.20;99.90
12911;DHT22;6523;49.758;6.120;2023-12-22T00:29:47;9.20;99.90
12911;DHT22;6523;49.758;6.120;2023-12-22T00:32:12;9.20;99.90
12911;DHT22;6523;49.758;6.120;2023-12-22T00:34:38;9.30;99.90
12911;DHT22;6523;49.758;6.120;2023-12-22T00:37:04;9.30;99.90
12911;DHT22;6523;49.758;6.120;2023-12-22T00:39:30;9.20;99.90
12911;DHT22;6523;49.758;6.120;2023-12-22T00:41:56;9.20;99.90
12911;DHT22;6523;49.758;6.120;2023-12-22T00:44:22;9.10;99.90
12911;DHT22;6523;49.758;6.120;2023-12-22T00:46:47;9.10;99.90
12911;DHT22;6523;49.758;6.120;2023-12-22T00:49:13;9.10;99.90
12911;DHT22;6523;49.758;6.120;2023-12-22T00:51:39;9.00;99.90
12911;DHT22;6523;49.758;6.120;2023-12-22T00:54:04;9.10;99.90
12911;DHT22;6523;49.758;6.120;2023-12-22T00:56:30;9.10;99.90
12911;DHT22;6523;49.758;6.120;2023-12-22T00:58:55;9.10;99.90
12911;DHT22;6523;49.758;6.120;2023-12-22T01:01:21;9.10;99.90
12911;DHT22;6523;49.758;6.120;2023-12-22T01:03:47;9.00;99.90
12911;DHT22;6523;49.758;6.120;2023-12-22T01:06:12;9.00;99.90
12911;DHT22;6523;49.758;6.120;2023-12-22T01:08:39;9.10;99.90
12911;DHT22;6523;49.758;6.120;2023-12-22T01:11:05;9.00;99.90
12911;DHT22;6523;49.758;6.120;2023-12-22T01:13:30;9.00;99.90
12911;DHT22;6523;49.758;6.120;2023-12-22T01:15:56;8.80;99.90
12911;DHT22;6523;49.758;6.120;2023-12-22T01:18:22;8.70;99.90
12911;DHT22;6523;49.758;6.120;2023-12-22T01:20:47;8.60;99.90
12911;DHT22;6523;49.758;6.120;2023-12-22T01:23:14;8.50;99.90
12911;DHT22;6523;49.758;6.120;2023-12-22T01:25:40;8.60;99.90
12911;DHT22;6523;49.758;6.120;2023-12-22T01:28:05;8.50;99.90
12911;DHT22;6523;49.758;6.120;2023-12-22T01:30:31;8.50;99.90
12911;DHT22;6523;49.758;6.120;2023-12-22T01:32:56;8.40;99.90
12911;DHT22;6523;49.758;6.120;2023-12-22T01:35:22;8.50;99.90
12911;DHT22;6523;49.758;6.120;2023-12-22T01:37:47;8.50;99.90
12911;DHT22;6523;49.758;6.120;2023-12-22T01:40:14;8.70;99.90
12911;DHT22;6523;49.758;6.120;2023-12-22T01:42:40;8.70;99.90
12911;DHT22;6523;49.758;6.120;2023-12-22T01:45:06;8.90;99.90
12911;DHT22;6523;49.758;6.120;2023-12-22T01:47:32;8.90;99.90
12911;DHT22;6523;49.758;6.120;2023-12-22T01:49:58;8.90;99.90
12911;DHT22;6523;49.758;6.120;2023-12-22T01:52:25;9.00;99.90
12911;DHT22;6523;49.758;6.120;2023-12-22T01:54:51;8.80;99.90
12911;DHT22;6523;49.758;6.120;2023-12-22T01:57:17;8.90;99.90
12911;DHT22;6523;49.758;6.120;2023-12-22T01:59:45;8.80;99.90
12911;DHT22;6523;49.758;6.120;2023-12-22T02:02:10;8.80;99.90
12911;DHT22;6523;49.758;6.120;2023-12-22T02:04:36;8.60;99.90
12911;DHT22;6523;49.758;6.120;2023-12-22T02:07:02;8.50;99.90
12911;DHT22;6523;49.758;6.120;2023-12-22T02:09:28;8.50;99.90
12911;DHT22;6523;49.758;6.120;2023-12-22T02:11:54;8.40;99.90
12911;DHT22;6523;49.758;6.120;2023-12-22T02:14:20;8.40;99.90
12911;DHT22;6523;49.758;6.120;2023-12-22T02:19:39;8.40;99.90
12911;DHT22;6523;49.758;6.120;2023-12-22T02:22:06;8.20;99.90
12911;DHT22;6523;49.758;6.120;2023-12-22T02:24:32;8.10;99.90
12911;DHT22;6523;49.758;6.120;2023-12-22T02:27:10;7.90;99.90
12911;DHT22;6523;49.758;6.120;2023-12-22T02:29:55;7.70;99.90
12911;DHT22;6523;49.758;6.120;2023-12-22T02:32:27;7.70;99.90
12911;DHT22;6523;49.758;6.120;2023-12-22T02:34:56;7.70;99.90
12911;DHT22;6523;49.758;6.120;2023-12-22T02:37:24;7.70;99.90
12911;DHT22;6523;49.758;6.120;2023-12-22T02:39:51;7.80;99.90
12911;DHT22;6523;49.758;6.120;2023-12-22T02:42:18;7.70;99.90
12911;DHT22;6523;49.758;6.120;2023-12-22T02:44:45;7.90;99.90
12911;DHT22;6523;49.758;6.120;2023-12-22T02:47:11;7.90;99.90
12911;DHT22;6523;49.758;6.120;2023-12-22T02:49:36;7.90;99.90
12911;DHT22;6523;49.758;6.120;2023-12-22T02:52:02;8.00;99.90
12911;DHT22;6523;49.758;6.120;2023-12-22T02:54:28;8.10;99.90
12911;DHT22;6523;49.758;6.120;2023-12-22T02:56:55;8.00;99.90
12911;DHT22;6523;49.758;6.120;2023-12-22T02:59:20;8.00;99.90
12911;DHT22;6523;49.758;6.120;2023-12-22T03:01:46;8.10;99.90
12911;DHT22;6523;49.758;6.120;2023-12-22T03:04:12;8.20;99.90
12911;DHT22;6523;49.758;6.120;2023-12-22T03:06:37;8.20;99.90
12911;DHT22;6523;49.758;6.120;2023-12-22T03:09:03;8.40;99.90
12911;DHT22;6523;49.758;6.120;2023-12-22T03:11:29;8.30;99.90
12911;DHT22;6523;49.758;6.120;2023-12-22T03:13:54;8.40;99.90
12911;DHT22;6523;49.758;6.120;2023-12-22T03:16:20;8.50;99.90
12911;DHT22;6523;49.758;6.120;2023-12-22T03:18:45;8.60;99.90
12911;DHT22;6523;49.758;6.120;2023-12-22T03:21:18;8.40;99.90
12911;DHT22;6523;49.758;6.120;2023-12-22T03:23:46;8.50;99.90
12911;DHT22;6523;49.758;6.120;2023-12-22T03:26:12;8.40;99.90
12911;DHT22;6523;49.758;6.120;2023-12-22T03:28:37;8.40;99.90
12911;DHT22;6523;49.758;6.120;2023-12-22T03:31:03;8.50;99.90
12911;DHT22;6523;49.758;6.120;2023-12-22T03:33:29;8.50;99.90
12911;DHT22;6523;49.758;6.120;2023-12-22T03:35:54;8.70;99.90
12911;DHT22;6523;49.758;6.120;2023-12-22T03:38:20;8.60;99.90
12911;DHT22;6523;49.758;6.120;2023-12-22T03:40:46;8.60;99.90
12911;DHT22;6523;49.758;6.120;2023-12-22T03:43:11;8.80;99.90
12911;DHT22;6523;49.758;6.120;2023-12-22T03:45:37;8.70;99.90
12911;DHT22;6523;49.758;6.120;2023-12-22T03:48:02;8.70;99.90
12911;DHT22;6523;49.758;6.120;2023-12-22T03:50:28;8.70;99.90
12911;DHT22;6523;49.758;6.120;2023-12-22T03:52:54;8.70;99.90
12911;DHT22;6523;49.758;6.120;2023-12-22T03:55:19;8.70;99.90
12911;DHT22;6523;49.758;6.120;2023-12-22T03:57:45;8.60;99.90
12911;DHT22;6523;49.758;6.120;2023-12-22T04:00:11;8.70;99.90
12911;DHT22;6523;49.758;6.120;2023-12-22T04:02:36;8.70;99.90
12911;DHT22;6523;49.758;6.120;2023-12-22T04:05:02;8.80;99.90
12911;DHT22;6523;49.758;6.120;2023-12-22T04:07:28;8.80;99.90
12911;DHT22;6523;49.758;6.120;2023-12-22T04:09:53;8.80;99.90
12911;DHT22;6523;49.758;6.120;2023-12-22T04:12:19;8.70;99.90
12911;DHT22;6523;49.758;6.120;2023-12-22T04:14:44;8.80;99.90
12911;DHT22;6523;49.758;6.120;2023-12-22T04:17:10;8.80;99.90
12911;DHT22;6523;49.758;6.120;2023-12-22T04:19:36;8.70;99.90
12911;DHT22;6523;49.758;6.120;2023-12-22T04:22:01;8.50;99.90
12911;DHT22;6523;49.758;6.120;2023-12-22T04:24:28;8.40;99.90
12911;DHT22;6523;49.758;6.120;2023-12-22T04:26:53;8.20;99.90
12911;DHT22;6523;49.758;6.120;2023-12-22T04:29:19;8.00;99.90
12911;DHT22;6523;49.758;6.120;2023-12-22T04:31:44;7.80;99.90
12911;DHT22;6523;49.758;6.120;2023-12-22T04:34:13;7.70;99.90
12911;DHT22;6523;49.758;6.120;2023-12-22T04:36:39;7.60;99.90
12911;DHT22;6523;49.758;6.120;2023-12-22T04:39:04;7.50;99.90
12911;DHT22;6523;49.758;6.120;2023-12-22T04:41:30;7.50;99.90
12911;DHT22;6523;49.758;6.120;2023-12-22T04:43:56;7.40;99.90
12911;DHT22;6523;49.758;6.120;2023-12-22T04:46:21;7.30;99.90
12911;DHT22;6523;49.758;6.120;2023-12-22T04:48:47;7.30;99.90
12911;DHT22;6523;49.758;6.120;2023-12-22T04:51:12;7.20;99.90
12911;DHT22;6523;49.758;6.120;2023-12-22T04:53:38;7.20;99.90
12911;DHT22;6523;49.758;6.120;2023-12-22T04:56:03;7.10;99.90
12911;DHT22;6523;49.758;6.120;2023-12-22T04:58:29;7.10;99.90
12911;DHT22;6523;49.758;6.120;2023-12-22T05:00:55;7.10;99.90
12911;DHT22;6523;49.758;6.120;2023-12-22T05:03:20;7.20;99.90
12911;DHT22;6523;49.758;6.120;2023-12-22T05:05:46;7.20;99.90
12911;DHT22;6523;49.758;6.120;2023-12-22T05:08:11;7.30;99.90
12911;DHT22;6523;49.758;6.120;2023-12-22T05:10:37;7.40;99.90
12911;DHT22;6523;49.758;6.120;2023-12-22T05:13:03;7.60;99.90
12911;DHT22;6523;49.758;6.120;2023-12-22T05:15:29;7.50;99.90
12911;DHT22;6523;49.758;6.120;2023-12-22T05:17:54;7.50;99.90
12911;DHT22;6523;49.758;6.120;2023-12-22T05:20:20;7.50;99.90
12911;DHT22;6523;49.758;6.120;2023-12-22T05:22:45;7.50;99.90
12911;DHT22;6523;49.758;6.120;2023-12-22T05:25:13;7.50;99.90
12911;DHT22;6523;49.758;6.120;2023-12-22T05:27:38;7.50;99.90
12911;DHT22;6523;49.758;6.120;2023-12-22T05:30:05;7.50;99.90
12911;DHT22;6523;49.758;6.120;2023-12-22T05:32:31;7.50;99.90
12911;DHT22;6523;49.758;6.120;2023-12-22T05:34:56;7.40;99.90
12911;DHT22;6523;49.758;6.120;2023-12-22T05:37:22;7.40;99.90
12911;DHT22;6523;49.758;6.120;2023-12-22T05:39:47;7.40;99.90
12911;DHT22;6523;49.758;6.120;2023-12-22T05:42:13;7.40;99.90
12911;DHT22;6523;49.758;6.120;2023-12-22T05:44:38;7.40;99.90
12911;DHT22;6523;49.758;6.120;2023-12-22T05:47:05;7.40;99.90
12911;DHT22;6523;49.758;6.120;2023-12-22T05:49:30;7.30;99.90
12911;DHT22;6523;49.758;6.120;2023-12-22T05:51:56;7.30;99.90
12911;DHT22;6523;49.758;6.120;2023-12-22T05:54:22;7.30;99.90
12911;DHT22;6523;49.758;6.120;2023-12-22T05:56:48;7.20;99.90
12911;DHT22;6523;49.758;6.120;2023-12-22T05:59:16;7.20;99.90
12911;DHT22;6523;49.758;6.120;2023-12-22T06:01:42;7.20;99.90
12911;DHT22;6523;49.758;6.120;2023-12-22T06:04:07;7.20;99.90
12911;DHT22;6523;49.758;6.120;2023-12-22T06:06:33;7.20;99.90
12911;DHT22;6523;49.758;6.120;2023-12-22T06:08:58;7.20;99.90
12911;DHT22;6523;49.758;6.120;2023-12-22T06:11:24;7.20;99.90
12911;DHT22;6523;49.758;6.120;2023-12-22T06:13:49;7.10;99.90
12911;DHT22;6523;49.758;6.120;2023-12-22T06:16:15;7.20;99.90
12911;DHT22;6523;49.758;6.120;2023-12-22T06:18:41;7.40;99.90
12911;DHT22;6523;49.758;6.120;2023-12-22T06:21:09;7.40;99.90
12911;DHT22;6523;49.758;6.120;2023-12-22T06:23:34;7.40;99.90
12911;DHT22;6523;49.758;6.120;2023-12-22T06:26:00;7.60;99.90
12911;DHT22;6523;49.758;6.120;2023-12-22T06:28:28;7.70;99.90
12911;DHT22;6523;49.758;6.120;2023-12-22T06:30:53;7.90;99.90
12911;DHT22;6523;49.758;6.120;2023-12-22T06:33:19;8.10;99.90
12911;DHT22;6523;49.758;6.120;2023-12-22T06:35:45;8.10;99.90
12911;DHT22;6523;49.758;6.120;2023-12-22T06:38:11;8.20;99.90
12911;DHT22;6523;49.758;6.120;2023-12-22T06:40:37;8.30;99.90
12911;DHT22;6523;49.758;6.120;2023-12-22T06:43:03;8.30;99.90
12911;DHT22;6523;49.758;6.120;2023-12-22T06:45:30;8.30;99.90
12911;DHT22;6523;49.758;6.120;2023-12-22T06:47:55;8.30;99.90
12911;DHT22;6523;49.758;6.120;2023-12-22T06:50:21;8.50;99.90
12911;DHT22;6523;49.758;6.120;2023-12-22T06:52:46;8.50;99.90
12911;DHT22;6523;49.758;6.120;2023-12-22T06:55:12;8.50;99.90
12911;DHT22;6523;49.758;6.120;2023-12-22T06:57:38;8.50;99.90
12911;DHT22;6523;49.758;6.120;2023-12-22T07:00:04;8.40;99.90
12911;DHT22;6523;49.758;6.120;2023-12-22T07:02:30;8.50;99.90
12911;DHT22;6523;49.758;6.120;2023-12-22T07:07:49;8.50;99.90
12911;DHT22;6523;49.758;6.120;2023-12-22T07:10:16;8.50;99.90
12911;DHT22;6523;49.758;6.120;2023-12-22T07:12:41;8.40;99.90
12911;DHT22;6523;49.758;6.120;2023-12-22T07:15:07;8.40;99.90
12911;DHT22;6523;49.758;6.120;2023-12-22T07:17:34;8.40;99.90
12911;DHT22;6523;49.758;6.120;2023-12-22T07:19:59;8.40;99.90
12911;DHT22;6523;49.758;6.120;2023-12-22T07:22:28;8.40;99.90
12911;DHT22;6523;49.758;6.120;2023-12-22T07:24:53;8.50;99.90
12911;DHT22;6523;49.758;6.120;2023-12-22T07:27:21;8.40;99.90
12911;DHT22;6523;49.758;6.120;2023-12-22T07:29:46;8.40;99.90
12911;DHT22;6523;49.758;6.120;2023-12-22T07:32:12;8.40;99.90
12911;DHT22;6523;49.758;6.120;2023-12-22T07:34:38;8.40;99.90
12911;DHT22;6523;49.758;6.120;2023-12-22T07:37:03;8.40;99.90
12911;DHT22;6523;49.758;6.120;2023-12-22T07:39:30;8.40;99.90
12911;DHT22;6523;49.758;6.120;2023-12-22T07:41:56;8.40;99.90
12911;DHT22;6523;49.758;6.120;2023-12-22T07:44:21;8.40;99.90
12911;DHT22;6523;49.758;6.120;2023-12-22T07:46:56;8.40;99.90
12911;DHT22;6523;49.758;6.120;2023-12-22T07:49:22;8.40;99.90
12911;DHT22;6523;49.758;6.120;2023-12-22T07:51:48;8.40;99.90
12911;DHT22;6523;49.758;6.120;2023-12-22T07:54:17;8.50;99.90
12911;DHT22;6523;49.758;6.120;2023-12-22T07:56:42;8.50;99.90
12911;DHT22;6523;49.758;6.120;2023-12-22T07:59:08;8.40;99.90
12911;DHT22;6523;49.758;6.120;2023-12-22T08:01:34;8.40;99.90
12911;DHT22;6523;49.758;6.120;2023-12-22T08:03:59;8.40;99.90
12911;DHT22;6523;49.758;6.120;2023-12-22T08:06:25;8.50;99.90
12911;DHT22;6523;49.758;6.120;2023-12-22T08:08:50;8.40;99.90
12911;DHT22;6523;49.758;6.120;2023-12-22T08:11:16;8.50;99.90
12911;DHT22;6523;49.758;6.120;2023-12-22T08:13:41;8.50;99.90
12911;DHT22;6523;49.758;6.120;2023-12-22T08:16:07;8.40;99.90
12911;DHT22;6523;49.758;6.120;2023-12-22T08:18:32;8.40;99.90
12911;DHT22;6523;49.758;6.120;2023-12-22T08:20:58;8.40;99.90
12911;DHT22;6523;49.758;6.120;2023-12-22T08:23:24;8.50;99.90
12911;DHT22;6523;49.758;6.120;2023-12-22T08:25:49;8.50;99.90
12911;DHT22;6523;49.758;6.120;2023-12-22T08:28:15;8.50;99.90
12911;DHT22;6523;49.758;6.120;2023-12-22T08:30:40;8.60;99.90
12911;DHT22;6523;49.758;6.120;2023-12-22T08:33:06;8.50;99.90
12911;DHT22;6523;49.758;6.120;2023-12-22T08:35:32;8.50;99.90
12911;DHT22;6523;49.758;6.120;2023-12-22T08:37:57;8.60;99.90
12911;DHT22;6523;49.758;6.120;2023-12-22T08:40:23;8.60;99.90
12911;DHT22;6523;49.758;6.120;2023-12-22T08:42:52;8.60;99.90
12911;DHT22;6523;49.758;6.120;2023-12-22T08:45:20;8.60;99.90
12911;DHT22;6523;49.758;6.120;2023-12-22T08:47:46;8.60;99.90
12911;DHT22;6523;49.758;6.120;2023-12-22T08:50:12;8.70;99.90
12911;DHT22;6523;49.758;6.120;2023-12-22T08:52:38;8.60;99.90
12911;DHT22;6523;49.758;6.120;2023-12-22T08:55:04;8.70;99.90
12911;DHT22;6523;49.758;6.120;2023-12-22T08:57:30;8.60;99.90
12911;DHT22;6523;49.758;6.120;2023-12-22T08:59:57;8.70;99.90
12911;DHT22;6523;49.758;6.120;2023-12-22T09:02:22;8.70;99.90
12911;DHT22;6523;49.758;6.120;2023-12-22T09:04:48;8.80;99.90
12911;DHT22;6523;49.758;6.120;2023-12-22T09:07:14;8.80;99.90
12911;DHT22;6523;49.758;6.120;2023-12-22T09:09:46;8.90;99.90
12911;DHT22;6523;49.758;6.120;2023-12-22T09:12:11;8.90;99.90
12911;DHT22;6523;49.758;6.120;2023-12-22T09:14:37;9.00;99.90
12911;DHT22;6523;49.758;6.120;2023-12-22T09:17:03;9.00;99.90
12911;DHT22;6523;49.758;6.120;2023-12-22T09:21:58;9.10;99.90
12911;DHT22;6523;49.758;6.120;2023-12-22T09:24:23;9.10;99.90
12911;DHT22;6523;49.758;6.120;2023-12-22T09:26:49;9.10;99.90
12911;DHT22;6523;49.758;6.120;2023-12-22T09:29:16;9.10;99.90
12911;DHT22;6523;49.758;6.120;2023-12-22T09:31:42;9.00;99.90
12911;DHT22;6523;49.758;6.120;2023-12-22T09:34:08;9.00;99.90
12911;DHT22;6523;49.758;6.120;2023-12-22T09:36:33;9.00;99.90
12911;DHT22;6523;49.758;6.120;2023-12-22T09:38:59;9.00;99.90
12911;DHT22;6523;49.758;6.120;2023-12-22T09:41:24;8.90;99.90
12911;DHT22;6523;49.758;6.120;2023-12-22T09:43:51;9.00;99.90
12911;DHT22;6523;49.758;6.120;2023-12-22T09:46:19;8.90;99.90
12911;DHT22;6523;49.758;6.120;2023-12-22T09:48:46;9.00;99.90
12911;DHT22;6523;49.758;6.120;2023-12-22T09:51:12;9.00;99.90
12911;DHT22;6523;49.758;6.120;2023-12-22T09:53:40;9.00;99.90
12911;DHT22;6523;49.758;6.120;2023-12-22T09:56:06;9.00;99.90
12911;DHT22;6523;49.758;6.120;2023-12-22T09:58:34;9.10;99.90
12911;DHT22;6523;49.758;6.120;2023-12-22T10:01:02;9.10;99.90
12911;DHT22;6523;49.758;6.120;2023-12-22T10:03:33;9.10;99.90
12911;DHT22;6523;49.758;6.120;2023-12-22T10:06:00;9.10;99.90
12911;DHT22;6523;49.758;6.120;2023-12-22T10:08:27;9.10;99.90
12911;DHT22;6523;49.758;6.120;2023-12-22T10:10:53;9.00;99.90
12911;DHT22;6523;49.758;6.120;2023-12-22T10:13:19;9.10;99.90
12911;DHT22;6523;49.758;6.120;2023-12-22T10:15:46;9.10;99.90
12911;DHT22;6523;49.758;6.120;2023-12-22T10:18:12;9.20;99.90
12911;DHT22;6523;49.758;6.120;2023-12-22T10:20:38;9.20;99.90
12911;DHT22;6523;49.758;6.120;2023-12-22T10:23:04;9.10;99.90
12911;DHT22;6523;49.758;6.120;2023-12-22T10:25:30;9.10;99.90
12911;DHT22;6523;49.758;6.120;2023-12-22T10:27:56;9.10;99.90
12911;DHT22;6523;49.758;6.120;2023-12-22T10:30:22;9.10;99.90
12911;DHT22;6523;49.758;6.120;2023-12-22T10:32:50;9.20;99.90
12911;DHT22;6523;49.758;6.120;2023-12-22T10:35:17;9.20;99.90
12911;DHT22;6523;49.758;6.120;2023-12-22T10:37:45;9.30;99.90
12911;DHT22;6523;49.758;6.120;2023-12-22T10:40:11;9.30;99.90
12911;DHT22;6523;49.758;6.120;2023-12-22T10:42:37;9.30;99.90
12911;DHT22;6523;49.758;6.120;2023-12-22T10:45:03;9.30;99.90
12911;DHT22;6523;49.758;6.120;2023-12-22T10:47:28;9.40;99.90
12911;DHT22;6523;49.758;6.120;2023-12-22T10:49:54;9.40;99.90
12911;DHT22;6523;49.758;6.120;2023-12-22T10:52:20;9.40;99.90
12911;DHT22;6523;49.758;6.120;2023-12-22T10:54:47;9.40;99.90
12911;DHT22;6523;49.758;6.120;2023-12-22T10:57:16;9.40;99.90
12911;DHT22;6523;49.758;6.120;2023-12-22T10:59:45;9.50;99.90
12911;DHT22;6523;49.758;6.120;2023-12-22T11:02:20;9.50;99.90
12911;DHT22;6523;49.758;6.120;2023-12-22T11:05:04;9.50;99.90
12911;DHT22;6523;49.758;6.120;2023-12-22T11:07:33;9.50;99.90
12911;DHT22;6523;49.758;6.120;2023-12-22T11:10:05;9.50;99.90
12911;DHT22;6523;49.758;6.120;2023-12-22T11:12:41;9.50;99.90
12911;DHT22;6523;49.758;6.120;2023-12-22T11:15:10;9.60;99.90
12911;DHT22;6523;49.758;6.120;2023-12-22T11:17:39;9.60;99.90
12911;DHT22;6523;49.758;6.120;2023-12-22T11:20:09;9.60;99.90
12911;DHT22;6523;49.758;6.120;2023-12-22T11:22:36;9.60;99.90
12911;DHT22;6523;49.758;6.120;2023-12-22T11:25:02;9.60;99.90
12911;DHT22;6523;49.758;6.120;2023-12-22T11:27:29;9.70;99.90
12911;DHT22;6523;49.758;6.120;2023-12-22T11:29:55;9.70;99.90
12911;DHT22;6523;49.758;6.120;2023-12-22T11:32:21;9.70;99.90
12911;DHT22;6523;49.758;6.120;2023-12-22T11:34:48;9.70;99.90
12911;DHT22;6523;49.758;6.120;2023-12-22T11:37:15;9.70;99.90
12911;DHT22;6523;49.758;6.120;2023-12-22T11:39:44;9.80;99.90
12911;DHT22;6523;49.758;6.120;2023-12-22T11:42:17;9.80;99.90
12911;DHT22;6523;49.758;6.120;2023-12-22T11:44:44;9.90;99.90
12911;DHT22;6523;49.758;6.120;2023-12-22T11:47:10;9.90;99.90
12911;DHT22;6523;49.758;6.120;2023-12-22T11:49:37;9.90;99.90
12911;DHT22;6523;49.758;6.120;2023-12-22T11:52:16;9.90;99.90
12911;DHT22;6523;49.758;6.120;2023-12-22T11:54:52;9.90;99.90
12911;DHT22;6523;49.758;6.120;2023-12-22T12:00:47;10.00;99.90
12911;DHT22;6523;49.758;6.120;2023-12-22T12:02:56;10.00;99.90
12911;DHT22;6523;49.758;6.120;2023-12-22T12:05:22;10.00;99.90
12911;DHT22;6523;49.758;6.120;2023-12-22T12:07:48;10.10;99.90
12911;DHT22;6523;49.758;6.120;2023-12-22T12:13:11;10.20;99.90
12911;DHT22;6523;49.758;6.120;2023-12-22T12:15:38;10.20;99.90
12911;DHT22;6523;49.758;6.120;2023-12-22T12:18:05;10.20;99.90
12911;DHT22;6523;49.758;6.120;2023-12-22T12:20:33;10.30;99.90
12911;DHT22;6523;49.758;6.120;2023-12-22T12:23:01;10.30;99.90
12911;DHT22;6523;49.758;6.120;2023-12-22T12:25:30;10.30;99.90
12911;DHT22;6523;49.758;6.120;2023-12-22T12:28:07;10.30;99.90
12911;DHT22;6523;49.758;6.120;2023-12-22T12:30:35;10.40;99.90
12911;DHT22;6523;49.758;6.120;2023-12-22T12:33:12;10.40;99.90
12911;DHT22;6523;49.758;6.120;2023-12-22T12:35:40;10.40;99.90
12911;DHT22;6523;49.758;6.120;2023-12-22T12:38:06;10.40;99.90
12911;DHT22;6523;49.758;6.120;2023-12-22T12:40:32;10.40;99.90
12911;DHT22;6523;49.758;6.120;2023-12-22T12:43:01;10.50;99.90
12911;DHT22;6523;49.758;6.120;2023-12-22T12:45:27;10.40;99.90
12911;DHT22;6523;49.758;6.120;2023-12-22T12:50:22;10.50;99.90
12911;DHT22;6523;49.758;6.120;2023-12-22T12:52:48;10.50;99.90
12911;DHT22;6523;49.758;6.120;2023-12-22T12:55:20;10.60;99.90
12911;DHT22;6523;49.758;6.120;2023-12-22T12:57:48;10.60;99.90
12911;DHT22;6523;49.758;6.120;2023-12-22T13:00:17;10.60;99.90
12911;DHT22;6523;49.758;6.120;2023-12-22T13:02:49;10.60;99.90
12911;DHT22;6523;49.758;6.120;2023-12-22T13:05:22;10.60;99.90
12911;DHT22;6523;49.758;6.120;2023-12-22T13:07:47;10.60;99.90
12911;DHT22;6523;49.758;6.120;2023-12-22T13:10:23;10.70;99.90
12911;DHT22;6523;49.758;6.120;2023-12-22T13:12:51;10.70;99.90
12911;DHT22;6523;49.758;6.120;2023-12-22T13:15:20;10.70;99.90
12911;DHT22;6523;49.758;6.120;2023-12-22T13:17:46;10.70;99.90
12911;DHT22;6523;49.758;6.120;2023-12-22T13:20:12;10.70;99.90
12911;DHT22;6523;49.758;6.120;2023-12-22T13:22:38;10.70;99.90
12911;DHT22;6523;49.758;6.120;2023-12-22T13:25:04;10.60;99.90
12911;DHT22;6523;49.758;6.120;2023-12-22T13:27:30;10.60;99.90
12911;DHT22;6523;49.758;6.120;2023-12-22T13:29:56;10.60;99.90
12911;DHT22;6523;49.758;6.120;2023-12-22T13:32:22;10.70;99.90
12911;DHT22;6523;49.758;6.120;2023-12-22T13:34:53;10.70;99.90
12911;DHT22;6523;49.758;6.120;2023-12-22T13:37:19;10.70;99.90
12911;DHT22;6523;49.758;6.120;2023-12-22T13:39:50;10.60;99.90
12911;DHT22;6523;49.758;6.120;2023-12-22T13:42:19;10.60;99.90
12911;DHT22;6523;49.758;6.120;2023-12-22T13:44:47;10.60;99.90
12911;DHT22;6523;49.758;6.120;2023-12-22T13:47:19;10.50;99.90
12911;DHT22;6523;49.758;6.120;2023-12-22T13:49:48;10.60;99.90
12911;DHT22;6523;49.758;6.120;2023-12-22T13:52:30;10.60;99.90
12911;DHT22;6523;49.758;6.120;2023-12-22T13:55:01;10.60;99.90
12911;DHT22;6523;49.758;6.120;2023-12-22T13:57:28;10.50;99.90
12911;DHT22;6523;49.758;6.120;2023-12-22T13:59:54;10.40;99.90
12911;DHT22;6523;49.758;6.120;2023-12-22T14:02:21;10.30;99.90
12911;DHT22;6523;49.758;6.120;2023-12-22T14:04:49;10.30;99.90
12911;DHT22;6523;49.758;6.120;2023-12-22T14:07:15;10.30;99.90
12911;DHT22;6523;49.758;6.120;2023-12-22T14:09:40;10.30;99.90
12911;DHT22;6523;49.758;6.120;2023-12-22T14:12:06;10.30;99.90
12911;DHT22;6523;49.758;6.120;2023-12-22T14:14:32;10.30;99.90
12911;DHT22;6523;49.758;6.120;2023-12-22T14:16:57;10.30;99.90
12911;DHT22;6523;49.758;6.120;2023-12-22T14:19:23;10.30;99.90
12911;DHT22;6523;49.758;6.120;2023-12-22T14:21:48;10.30;99.90
12911;DHT22;6523;49.758;6.120;2023-12-22T14:24:14;10.20;99.90
12911;DHT22;6523;49.758;6.120;2023-12-22T14:26:56;10.20;99.90
12911;DHT22;6523;49.758;6.120;2023-12-22T14:29:22;10.30;99.90
12911;DHT22;6523;49.758;6.120;2023-12-22T14:31:49;10.30;99.90
12911;DHT22;6523;49.758;6.120;2023-12-22T14:34:15;10.30;99.90
12911;DHT22;6523;49.758;6.120;2023-12-22T14:36:40;10.30;99.90
12911;DHT22;6523;49.758;6.120;2023-12-22T14:39:06;10.20;99.90
12911;DHT22;6523;49.758;6.120;2023-12-22T14:41:31;10.20;99.90
12911;DHT22;6523;49.758;6.120;2023-12-22T14:43:57;10.10;99.90
12911;DHT22;6523;49.758;6.120;2023-12-22T14:46:22;10.20;99.90
12911;DHT22;6523;49.758;6.120;2023-12-22T14:48:48;10.10;99.90
12911;DHT22;6523;49.758;6.120;2023-12-22T14:51:14;10.00;99.90
12911;DHT22;6523;49.758;6.120;2023-12-22T14:53:39;10.00;99.90
12911;DHT22;6523;49.758;6.120;2023-12-22T14:56:05;10.00;99.90
12911;DHT22;6523;49.758;6.120;2023-12-22T14:58:31;9.90;99.90
12911;DHT22;6523;49.758;6.120;2023-12-22T15:00:57;9.80;99.90
12911;DHT22;6523;49.758;6.120;2023-12-22T15:03:23;9.90;99.90
12911;DHT22;6523;49.758;6.120;2023-12-22T15:05:48;9.90;99.90
12911;DHT22;6523;49.758;6.120;2023-12-22T15:08:14;9.90;99.90
12911;DHT22;6523;49.758;6.120;2023-12-22T15:10:40;9.90;99.90
12911;DHT22;6523;49.758;6.120;2023-12-22T15:13:05;9.90;99.90
12911;DHT22;6523;49.758;6.120;2023-12-22T15:15:31;10.00;99.90
12911;DHT22;6523;49.758;6.120;2023-12-22T15:17:56;10.00;99.90
12911;DHT22;6523;49.758;6.120;2023-12-22T15:20:22;10.00;99.90
12911;DHT22;6523;49.758;6.120;2023-12-22T15:22:47;10.00;99.90
12911;DHT22;6523;49.758;6.120;2023-12-22T15:25:13;10.10;99.90
12911;DHT22;6523;49.758;6.120;2023-12-22T15:27:39;10.10;99.90
12911;DHT22;6523;49.758;6.120;2023-12-22T15:30:05;10.10;99.90
12911;DHT22;6523;49.758;6.120;2023-12-22T15:32:31;10.00;99.90
12911;DHT22;6523;49.758;6.120;2023-12-22T15:34:57;10.00;99.90
12911;DHT22;6523;49.758;6.120;2023-12-22T15:37:22;10.00;99.90
12911;DHT22;6523;49.758;6.120;2023-12-22T15:39:48;10.00;99.90
12911;DHT22;6523;49.758;6.120;2023-12-22T15:42:14;9.90;99.90
12911;DHT22;6523;49.758;6.120;2023-12-22T15:44:40;9.90;99.90
12911;DHT22;6523;49.758;6.120;2023-12-22T15:47:07;9.90;99.90
12911;DHT22;6523;49.758;6.120;2023-12-22T15:49:32;9.90;99.90
12911;DHT22;6523;49.758;6.120;2023-12-22T15:51:58;9.90;99.90
12911;DHT22;6523;49.758;6.120;2023-12-22T15:54:23;10.00;99.90
12911;DHT22;6523;49.758;6.120;2023-12-22T15:56:49;10.10;99.90
12911;DHT22;6523;49.758;6.120;2023-12-22T15:59:15;10.00;99.90
12911;DHT22;6523;49.758;6.120;2023-12-22T16:01:46;10.10;99.90
12911;DHT22;6523;49.758;6.120;2023-12-22T16:04:12;10.00;99.90
12911;DHT22;6523;49.758;6.120;2023-12-22T16:06:38;10.10;99.90
12911;DHT22;6523;49.758;6.120;2023-12-22T16:09:03;10.10;99.90